Time;durP1;ratioP1;P1;durP2;ratioP2;P2;SDS_P1;SDS_P2;PMS_P1;PMS_P2;Temp;Humidity;BMP_temperature;BMP_pressure;BME280_temperature;BME280_humidity;BME280_pressure;Samples;Min_cycle;Max_cycle;Signal;HPM_P1;HPM_P2
2022/07/04 00:00:23;;;;;;;94.82;37.63;;;13.00;99.90;;;;;;4957028;28;20050;-70
2022/07/04 00:02:49;;;;;;;74.50;31.38;;;13.00;99.90;;;;;;4957017;28;20053;-70
2022/07/04 00:05:15;;;;;;;70.90;30.58;;;13.10;99.90;;;;;;4957236;28;20072;-69
2022/07/04 00:07:50;;;;;;;75.95;32.13;;;13.00;99.90;;;;;;4957038;28;20042;-69
2022/07/04 00:10:20;;;;;;;88.20;32.88;;;12.90;99.90;;;;;;4989376;28;20042;-70
2022/07/04 00:12:46;;;;;;;88.22;33.38;;;13.00;99.90;;;;;;4956868;28;20043;-70
2022/07/04 00:15:12;;;;;;;84.90;33.17;;;13.00;99.90;;;;;;4956741;28;20047;-69
2022/07/04 00:17:38;;;;;;;66.57;27.55;;;13.00;99.90;;;;;;4983193;28;20043;-70
2022/07/04 00:20:05;;;;;;;50.38;23.27;;;12.90;99.90;;;;;;4957526;28;20043;-70
2022/07/04 00:22:31;;;;;;;42.63;20.30;;;12.90;99.90;;;;;;4961921;28;20034;-70
2022/07/04 00:24:57;;;;;;;32.22;16.23;;;13.00;99.90;;;;;;4947962;28;20081;-71
2022/07/04 00:27:22;;;;;;;77.15;28.88;;;12.90;99.90;;;;;;4938894;28;20034;-72
2022/07/04 00:29:48;;;;;;;56.08;23.02;;;12.90;99.90;;;;;;4958433;28;20055;-71
2022/07/04 00:32:13;;;;;;;72.15;28.83;;;12.90;99.90;;;;;;4954115;28;20046;-70
2022/07/04 00:34:39;;;;;;;70.80;28.63;;;12.90;99.90;;;;;;4950689;28;20047;-70
2022/07/04 00:37:05;;;;;;;76.57;29.90;;;12.90;99.90;;;;;;4955969;28;20043;-70
2022/07/04 00:39:31;;;;;;;70.20;26.90;;;12.80;99.90;;;;;;4957529;28;20093;-70
2022/07/04 00:41:56;;;;;;;86.97;13.93;;;12.90;99.90;;;;;;4941733;28;20034;-70
2022/07/04 00:48:03;;;;;;;22.45;10.07;;;12.50;99.90;;;;;;4979420;28;20077;-70
2022/07/04 00:50:28;;;;;;;21.60;10.65;;;12.40;99.90;;;;;;4960010;28;20046;-70
2022/07/04 00:52:54;;;;;;;20.00;9.75;;;12.40;99.90;;;;;;4960248;28;20082;-70
2022/07/04 00:55:22;;;;;;;16.38;9.82;;;12.30;99.90;;;;;;4960351;28;20051;-69
2022/07/04 00:57:48;;;;;;;10.38;6.60;;;12.30;99.90;;;;;;4960090;28;20043;-69
2022/07/04 01:00:13;;;;;;;11.77;6.57;;;12.20;99.90;;;;;;4959757;28;20551;-69
2022/07/04 01:06:20;;;;;;;10.00;6.35;;;12.20;99.90;;;;;;4971170;28;20497;-69
2022/07/04 01:08:46;;;;;;;10.98;5.63;;;12.20;99.90;;;;;;4959717;28;20039;-69
2022/07/04 01:11:12;;;;;;;9.90;6.43;;;12.10;99.90;;;;;;4959806;28;20046;-69
2022/07/04 01:13:40;;;;;;;16.80;7.45;;;12.10;99.90;;;;;;4960081;28;20081;-69
2022/07/04 01:16:06;;;;;;;12.32;8.00;;;12.10;99.90;;;;;;4959604;28;20513;-69
2022/07/04 01:18:32;;;;;;;17.25;10.43;;;12.00;99.90;;;;;;4959597;28;20070;-69
2022/07/04 01:20:57;;;;;;;16.48;10.68;;;12.10;99.90;;;;;;4959397;28;20121;-69
2022/07/04 01:23:23;;;;;;;22.25;12.60;;;12.10;99.90;;;;;;4960942;28;20037;-69
2022/07/04 01:25:50;;;;;;;18.75;10.48;;;12.10;99.90;;;;;;4964376;28;20031;-69
2022/07/04 01:28:17;;;;;;;9.52;6.40;;;12.00;99.90;;;;;;4956125;28;20039;-69
2022/07/04 01:30:43;;;;;;;8.88;5.47;;;11.90;99.90;;;;;;4973025;28;20054;-69
2022/07/04 01:33:08;;;;;;;9.25;6.03;;;11.80;99.90;;;;;;4955948;28;20049;-69
2022/07/04 01:35:34;;;;;;;11.68;6.35;;;11.70;99.90;;;;;;4959005;28;20050;-69
2022/07/04 01:37:59;;;;;;;8.55;5.95;;;11.70;99.90;;;;;;4960760;28;20051;-69
2022/07/04 01:40:25;;;;;;;14.00;7.95;;;11.70;99.90;;;;;;4943931;28;20147;-69
2022/07/04 01:42:51;;;;;;;17.75;8.50;;;11.70;99.90;;;;;;4959449;28;20034;-69
2022/07/04 01:45:16;;;;;;;18.38;10.93;;;11.70;99.90;;;;;;4960024;28;20492;-68
2022/07/04 01:51:23;;;;;;;22.83;12.63;;;11.70;99.90;;;;;;4975977;28;20489;-69
2022/07/04 01:53:49;;;;;;;27.50;14.30;;;11.70;99.90;;;;;;4959976;28;20026;-68
2022/07/04 01:56:14;;;;;;;24.85;14.55;;;11.80;99.90;;;;;;4961020;28;20097;-69
2022/07/04 02:02:21;;;;;;;34.72;17.23;;;11.80;99.90;;;;;;4977225;28;20194;-69
2022/07/04 02:04:46;;;;;;;36.95;9.50;;;11.80;99.90;;;;;;4961800;28;20039;-69
2022/07/04 02:07:12;;;;;;;15.88;9.55;;;11.70;99.90;;;;;;4960771;28;20038;-69
2022/07/04 02:09:37;;;;;;;15.82;9.45;;;11.60;99.90;;;;;;4962732;28;20465;-69
2022/07/04 02:15:44;;;;;;;22.50;11.45;;;11.50;99.90;;;;;;4973653;28;20508;-69
2022/07/04 02:18:11;;;;;;;18.40;11.15;;;11.60;99.90;;;;;;4957273;28;20074;-69
2022/07/04 02:20:37;;;;;;;17.35;10.43;;;11.60;99.90;;;;;;4946463;28;20042;-68
2022/07/04 02:26:44;;;;;;;20.05;11.63;;;11.60;99.90;;;;;;4986588;28;20080;-68
2022/07/04 02:29:09;;;;;;;24.45;14.35;;;11.60;99.90;;;;;;4961056;28;20038;-68
2022/07/04 02:31:35;;;;;;;28.25;15.00;;;11.60;99.90;;;;;;4956624;28;20105;-68
2022/07/04 02:34:01;;;;;;;26.30;14.02;;;11.60;99.90;;;;;;4961215;28;20460;-68
2022/07/04 02:36:26;;;;;;;21.95;12.23;;;11.50;99.90;;;;;;4957445;28;20034;-68
2022/07/04 02:38:52;;;;;;;23.50;13.20;;;11.60;99.90;;;;;;4953814;28;20043;-68
2022/07/04 02:41:17;;;;;;;21.17;11.50;;;11.50;99.90;;;;;;4948433;28;20038;-68
2022/07/04 02:43:43;;;;;;;25.63;12.43;;;11.60;99.90;;;;;;4950094;28;20064;-68
2022/07/04 02:46:09;;;;;;;25.40;12.98;;;11.50;99.90;;;;;;4957595;28;20393;-68
2022/07/04 02:48:34;;;;;;;27.65;13.05;;;11.50;99.90;;;;;;4952322;28;20038;-68
2022/07/04 02:51:00;;;;;;;25.33;13.75;;;11.50;99.90;;;;;;4953097;28;20093;-68
2022/07/04 02:53:25;;;;;;;22.08;11.68;;;11.60;99.90;;;;;;4948637;28;20041;-68
2022/07/04 02:55:51;;;;;;;20.45;11.57;;;11.50;99.90;;;;;;4967383;28;20388;-68
2022/07/04 02:58:16;;;;;;;19.80;11.23;;;11.50;99.90;;;;;;4959926;28;20050;-68
2022/07/04 03:00:42;;;;;;;22.40;12.63;;;11.50;99.90;;;;;;4956815;28;20544;-67
2022/07/04 03:10:15;;;;;;;30.65;16.73;;;11.40;99.90;;;;;;4954082;28;20089;-67
2022/07/04 03:12:41;;;;;;;26.25;14.75;;;11.40;99.90;;;;;;4958745;28;20470;-67
2022/07/04 03:15:07;;;;;;;29.67;15.68;;;11.40;99.90;;;;;;4962748;28;20031;-67
2022/07/04 03:17:32;;;;;;;32.00;16.30;;;11.50;99.90;;;;;;4941793;28;20050;-67
2022/07/04 03:19:58;;;;;;;32.45;16.35;;;11.40;99.90;;;;;;4952839;28;20042;-68
2022/07/04 03:22:26;;;;;;;26.85;15.15;;;11.50;99.90;;;;;;4954339;28;20137;-68
2022/07/04 03:24:52;;;;;;;28.17;14.75;;;11.40;99.90;;;;;;4989010;28;20039;-68
2022/07/04 03:27:17;;;;;;;30.13;14.25;;;11.30;99.90;;;;;;4961482;28;20121;-68
2022/07/04 03:29:43;;;;;;;25.95;13.23;;;11.30;99.90;;;;;;4959252;28;20119;-68
2022/07/04 03:32:09;;;;;;;27.10;12.85;;;11.20;99.90;;;;;;4966086;28;20045;-68
2022/07/04 03:34:34;;;;;;;24.73;13.02;;;11.10;99.90;;;;;;4958980;28;20117;-68
2022/07/04 03:37:00;;;;;;;17.10;10.93;;;11.10;99.90;;;;;;4959882;28;20051;-67
2022/07/04 03:39:26;;;;;;;16.65;10.23;;;11.20;99.90;;;;;;4961057;28;20097;-68
2022/07/04 03:41:52;;;;;;;16.55;10.02;;;11.20;99.90;;;;;;4961889;28;20035;-68
2022/07/04 03:44:17;;;;;;;14.45;9.50;;;11.20;99.90;;;;;;4957029;28;20482;-68
2022/07/04 03:50:24;;;;;;;22.00;11.20;;;11.20;99.90;;;;;;4974473;28;20066;-68
2022/07/04 03:52:49;;;;;;;22.02;11.20;;;11.40;99.90;;;;;;4989219;28;20118;-68
2022/07/04 03:55:15;;;;;;;22.17;11.77;;;11.40;99.90;;;;;;4956676;28;20030;-68
2022/07/04 03:57:40;;;;;;;26.33;13.43;;;11.40;99.90;;;;;;4961096;28;20036;-68
2022/07/04 04:00:09;;;;;;;27.38;12.80;;;11.40;99.90;;;;;;4954925;28;20043;-68
2022/07/04 04:02:36;;;;;;;36.30;16.75;;;11.50;99.90;;;;;;4938140;28;20105;-68
2022/07/04 04:08:42;;;;;;;57.58;24.98;;;11.70;99.90;;;;;;4977956;28;20077;-68
2022/07/04 04:11:08;;;;;;;71.65;28.65;;;11.80;99.90;;;;;;4956734;28;20449;-68
2022/07/04 04:13:34;;;;;;;75.35;30.48;;;11.80;99.90;;;;;;4956711;28;20051;-68
2022/07/04 04:15:59;;;;;;;86.35;36.58;;;11.90;99.90;;;;;;4955937;28;20497;-68
2022/07/04 04:18:25;;;;;;;75.63;33.95;;;12.10;99.90;;;;;;4951506;28;20082;-68
2022/07/04 04:20:51;;;;;;;78.97;34.88;;;12.10;99.90;;;;;;4961252;28;20493;-69
2022/07/04 04:23:16;;;;;;;79.07;33.97;;;12.30;99.90;;;;;;4962087;28;20554;-69
2022/07/04 04:25:42;;;;;;;80.53;36.05;;;12.30;99.90;;;;;;4947285;28;20046;-70
2022/07/04 04:28:08;;;;;;;79.68;34.25;;;12.50;99.90;;;;;;4945550;28;20041;-69
2022/07/04 04:30:33;;;;;;;68.25;32.35;;;12.50;99.90;;;;;;4981552;28;20062;-70
2022/07/04 04:32:59;;;;;;;77.63;33.67;;;12.70;99.90;;;;;;4955388;28;20034;-70
2022/07/04 04:35:25;;;;;;;75.55;33.05;;;12.80;99.90;;;;;;4959461;28;20057;-69
2022/07/04 04:37:50;;;;;;;71.18;32.13;;;12.90;99.90;;;;;;4976550;28;20124;-70
2022/07/04 04:40:16;;;;;;;62.83;29.40;;;12.90;99.90;;;;;;4961744;28;20219;-69
2022/07/04 04:42:42;;;;;;;70.93;30.38;;;13.00;99.90;;;;;;4958433;28;20080;-69
2022/07/04 04:45:08;;;;;;;69.70;29.17;;;13.10;99.90;;;;;;4960384;28;20120;-70
2022/07/04 04:47:34;;;;;;;67.60;30.92;;;13.30;99.90;;;;;;4954259;28;20089;-69
2022/07/04 04:50:00;;;;;;;64.35;29.38;;;13.30;99.90;;;;;;4955583;28;20047;-69
2022/07/04 04:52:26;;;;;;;63.10;27.20;;;13.40;99.90;;;;;;4961638;28;20049;-68
2022/07/04 04:54:52;;;;;;;57.15;25.52;;;13.40;99.90;;;;;;4963723;28;20087;-69
2022/07/04 04:57:17;;;;;;;56.83;25.73;;;13.60;99.90;;;;;;4959319;28;20074;-68
2022/07/04 04:59:43;;;;;;;54.63;25.05;;;13.60;99.90;;;;;;4959883;28;20409;-69
2022/07/04 05:02:09;;;;;;;56.50;24.52;;;13.70;99.90;;;;;;4957202;28;20045;-69
2022/07/04 05:04:34;;;;;;;48.75;21.70;;;13.70;99.90;;;;;;4964729;28;20049;-69
2022/07/04 05:07:00;;;;;;;50.67;20.13;;;13.80;99.90;;;;;;4950780;28;20039;-68
2022/07/04 05:09:26;;;;;;;59.05;21.83;;;13.90;99.90;;;;;;4966058;28;20406;-68
2022/07/04 05:11:52;;;;;;;48.42;19.58;;;13.90;99.90;;;;;;4991943;28;20500;-68
2022/07/04 05:14:18;;;;;;;51.78;20.42;;;14.00;99.90;;;;;;4959848;28;20038;-68
2022/07/04 05:16:43;;;;;;;44.10;18.50;;;14.10;99.90;;;;;;4959611;28;20162;-68
2022/07/04 05:19:09;;;;;;;41.10;18.52;;;14.20;99.90;;;;;;4969016;28;20437;-69
2022/07/04 05:21:35;;;;;;;42.65;18.60;;;14.30;99.90;;;;;;4975718;28;20058;-67
2022/07/04 05:24:00;;;;;;;40.60;17.38;;;14.40;99.90;;;;;;4975863;28;20562;-68
2022/07/04 05:30:08;;;;;;;43.88;17.65;;;14.50;99.90;;;;;;4976836;28;20086;-68
2022/07/04 05:32:33;;;;;;;37.70;17.80;;;14.60;99.90;;;;;;4974929;28;20038;-68
2022/07/04 05:34:59;;;;;;;40.70;16.67;;;14.70;99.90;;;;;;4975695;28;20450;-67
2022/07/04 05:37:25;;;;;;;38.78;16.88;;;14.70;99.90;;;;;;4975133;28;20055;-67
2022/07/04 05:43:31;;;;;;;37.17;16.33;;;14.90;99.90;;;;;;4976731;28;20069;-67
2022/07/04 05:49:38;;;;;;;40.08;16.80;;;15.20;99.90;;;;;;4976614;28;20516;-67
2022/07/04 05:52:03;;;;;;;35.67;15.35;;;15.30;99.90;;;;;;4975147;28;20039;-66
2022/07/04 05:58:09;;;;;;;39.60;16.70;;;15.40;99.90;;;;;;4976358;28;20034;-66
2022/07/04 06:00:35;;;;;;;41.05;16.95;;;15.50;99.90;;;;;;4975026;28;20050;-66
2022/07/04 06:03:01;;;;;;;35.63;16.33;;;15.60;99.90;;;;;;4976208;28;20042;-66
2022/07/04 06:05:26;;;;;;;39.75;17.48;;;15.70;99.90;;;;;;4975009;28;20410;-67
2022/07/04 06:07:52;;;;;;;39.25;15.52;;;15.70;99.90;;;;;;4974899;28;20043;-67
2022/07/04 06:10:18;;;;;;;38.05;16.63;;;15.80;99.90;;;;;;4975168;28;20065;-66
2022/07/04 06:12:44;;;;;;;37.88;16.88;;;15.90;99.90;;;;;;4974921;28;20057;-66
2022/07/04 06:15:10;;;;;;;41.60;17.75;;;16.00;99.90;;;;;;4975098;28;20133;-66
2022/07/04 06:17:36;;;;;;;35.67;16.85;;;16.20;99.90;;;;;;4974654;28;20045;-66
2022/07/04 06:23:42;;;;;;;37.83;16.35;;;16.10;99.90;;;;;;4975965;28;20057;-68
2022/07/04 06:26:09;;;;;;;39.17;17.08;;;16.10;99.90;;;;;;4974577;28;20031;-66
2022/07/04 06:28:34;;;;;;;38.47;16.75;;;16.20;99.90;;;;;;4974603;28;20049;-67
2022/07/04 06:31:00;;;;;;;43.13;17.52;;;16.40;99.90;;;;;;4972597;28;20051;-68
2022/07/04 06:33:25;;;;;;;45.03;17.60;;;16.40;99.90;;;;;;4975226;28;20125;-67
2022/07/04 06:35:54;;;;;;;41.38;18.50;;;16.50;99.90;;;;;;4956307;28;20517;-69
2022/07/04 06:38:27;;;;;;;43.00;16.35;;;16.60;99.90;;;;;;4963873;28;20042;-68
2022/07/04 06:40:58;;;;;;;40.97;16.63;;;16.60;99.90;;;;;;4939444;28;20039;-72
2022/07/04 06:43:25;;;;;;;37.15;15.85;;;16.70;99.90;;;;;;4949538;28;20067;-68
2022/07/04 06:45:51;;;;;;;40.05;16.63;;;16.90;99.90;;;;;;4961035;28;20149;-69
2022/07/04 06:48:17;;;;;;;37.03;16.02;;;17.00;99.90;;;;;;4957796;28;20050;-67
2022/07/04 06:50:43;;;;;;;40.38;16.48;;;17.00;99.90;;;;;;4957249;28;20043;-74
2022/07/04 06:53:10;;;;;;;46.15;15.88;;;17.10;99.90;;;;;;4989859;28;20050;-68
2022/07/04 06:55:37;;;;;;;39.58;17.27;;;17.20;99.90;;;;;;4957034;28;20093;-74
2022/07/04 06:58:04;;;;;;;37.92;16.15;;;17.20;99.90;;;;;;4977527;28;20055;-70
2022/07/04 07:00:32;;;;;;;38.42;16.42;;;17.30;99.90;;;;;;4964864;28;20079;-71
2022/07/04 07:02:59;;;;;;;41.65;14.98;;;17.40;99.90;;;;;;4953379;28;20165;-69
2022/07/04 07:05:28;;;;;;;38.30;16.05;;;17.50;99.90;;;;;;4955791;28;20558;-70
2022/07/04 07:07:54;;;;;;;46.90;15.75;;;17.60;99.90;;;;;;4968987;28;20037;-70
2022/07/04 07:10:21;;;;;;;40.83;15.48;;;17.80;99.90;;;;;;4954120;28;20078;-73
2022/07/04 07:12:47;;;;;;;44.78;15.82;;;17.90;99.90;;;;;;4952815;28;20129;-73
2022/07/04 07:15:13;;;;;;;40.35;15.25;;;17.90;99.90;;;;;;4951564;28;20494;-70
2022/07/04 07:17:42;;;;;;;44.28;14.30;;;17.90;99.90;;;;;;4941271;28;20039;-72
2022/07/04 07:20:08;;;;;;;45.17;16.40;;;18.00;99.90;;;;;;4956251;28;20098;-71
2022/07/04 07:22:34;;;;;;;49.53;16.50;;;18.00;99.90;;;;;;4960775;28;20047;-73
2022/07/04 07:24:59;;;;;;;38.88;17.08;;;18.00;99.90;;;;;;4956985;28;20104;-73
2022/07/04 07:27:25;;;;;;;46.50;16.88;;;17.90;99.90;;;;;;4965480;28;20070;-74
2022/07/04 07:29:51;;;;;;;43.00;17.48;;;17.90;99.90;;;;;;4956351;28;20042;-72
2022/07/04 07:32:17;;;;;;;49.75;19.50;;;17.80;99.90;;;;;;4957525;28;20073;-75
2022/07/04 07:34:43;;;;;;;45.05;17.33;;;17.80;99.90;;;;;;4964204;28;20050;-74
2022/07/04 07:37:08;;;;;;;42.35;16.63;;;18.10;99.90;;;;;;4945374;28;20042;-72
2022/07/04 07:39:34;;;;;;;46.67;17.35;;;18.20;99.90;;;;;;4966630;28;20038;-73
2022/07/04 07:42:00;;;;;;;42.67;18.73;;;18.40;99.90;;;;;;4958881;28;21374;-71
2022/07/04 07:44:25;;;;;;;41.33;17.98;;;18.50;99.90;;;;;;4959692;28;20027;-74
2022/07/04 07:46:51;;;;;;;45.22;16.45;;;18.40;99.90;;;;;;4955017;28;20035;-72
2022/07/04 07:49:17;;;;;;;36.95;13.60;;;18.30;99.90;;;;;;4956996;28;20534;-71
2022/07/04 07:51:42;;;;;;;32.47;13.70;;;18.30;99.90;;;;;;4944766;28;20050;-70
2022/07/04 07:54:08;;;;;;;23.95;10.35;;;18.20;99.90;;;;;;4954038;28;20089;-69
2022/07/04 07:56:34;;;;;;;21.85;8.68;;;18.10;99.90;;;;;;4962369;28;20082;-72
2022/07/04 07:59:10;;;;;;;26.20;8.55;;;18.10;99.90;;;;;;4958406;28;20041;-71
2022/07/04 08:01:37;;;;;;;23.63;10.35;;;18.20;99.90;;;;;;4949572;28;20413;-72
2022/07/04 08:06:48;;;;;;;30.08;11.30;;;18.20;99.90;;;;;;4959254;28;20046;-71
2022/07/04 08:09:17;;;;;;;35.58;13.35;;;18.40;99.90;;;;;;4957176;28;20435;-74
2022/07/04 08:11:43;;;;;;;35.83;13.40;;;18.60;99.90;;;;;;4964574;28;20437;-72
2022/07/04 08:14:09;;;;;;;33.05;13.38;;;18.70;99.90;;;;;;4962378;28;20035;-71
2022/07/04 08:16:35;;;;;;;25.15;11.93;;;18.70;99.90;;;;;;4954968;28;20043;-70
2022/07/04 08:19:01;;;;;;;29.13;11.80;;;18.70;99.90;;;;;;4957168;28;20043;-71
2022/07/04 08:21:27;;;;;;;34.65;12.40;;;18.50;99.90;;;;;;4986046;28;20113;-72
2022/07/04 08:23:53;;;;;;;33.70;12.15;;;18.60;99.90;;;;;;4959452;28;20034;-73
2022/07/04 08:26:18;;;;;;;32.22;12.80;;;18.80;99.90;;;;;;4958281;28;20468;-72
2022/07/04 08:28:44;;;;;;;26.25;11.27;;;19.00;99.90;;;;;;4961790;28;20113;-72
2022/07/04 08:31:11;;;;;;;26.92;9.82;;;19.00;99.90;;;;;;4958190;28;20046;-72
2022/07/04 08:33:37;;;;;;;31.65;11.27;;;18.80;99.90;;;;;;4956602;28;20035;-73
2022/07/04 08:36:04;;;;;;;28.88;10.27;;;18.80;99.90;;;;;;4942438;28;20121;-74
2022/07/04 08:38:30;;;;;;;25.02;9.90;;;18.90;99.90;;;;;;4980945;28;20030;-72
2022/07/04 08:41:02;;;;;;;28.13;11.27;;;19.20;99.90;;;;;;4954450;28;20105;-73
2022/07/04 08:43:33;;;;;;;27.27;9.93;;;19.20;99.90;;;;;;4962171;28;20128;-74
2022/07/04 08:46:00;;;;;;;27.60;10.48;;;19.20;99.90;;;;;;4983556;28;20366;-72
2022/07/04 08:48:26;;;;;;;28.95;10.13;;;19.40;99.90;;;;;;4959251;28;21017;-69
2022/07/04 08:51:25;;;;;;;30.27;10.57;;;19.60;99.90;;;;;;4973182;28;20050;-72
2022/07/04 08:53:57;;;;;;;27.83;10.00;;;19.80;99.90;;;;;;4954449;28;20462;-72
2022/07/04 08:59:08;;;;;;;22.00;8.60;;;19.70;99.90;;;;;;4975760;28;20465;-71
2022/07/04 09:01:35;;;;;;;24.20;8.80;;;19.30;99.90;;;;;;4955963;28;20043;-75
2022/07/04 09:04:01;;;;;;;24.98;9.05;;;19.10;99.90;;;;;;4961603;28;20097;-73
2022/07/04 09:06:29;;;;;;;23.17;8.60;;;18.90;99.90;;;;;;4959777;28;20048;-72
2022/07/04 09:08:54;;;;;;;21.95;8.80;;;18.60;99.90;;;;;;4965462;28;20258;-71
2022/07/04 09:11:20;;;;;;;20.95;7.75;;;18.40;99.90;;;;;;4942241;28;20129;-74
2022/07/04 09:13:47;;;;;;;21.27;8.43;;;18.20;99.90;;;;;;4962668;28;20042;-72
2022/07/04 09:16:12;;;;;;;20.70;8.82;;;18.20;99.90;;;;;;4959839;28;20129;-70
2022/07/04 09:18:38;;;;;;;30.02;10.07;;;18.30;99.90;;;;;;4960244;28;20152;-73
2022/07/04 09:21:06;;;;;;;29.10;10.38;;;18.70;99.90;;;;;;4958006;28;20043;-70
2022/07/04 09:23:35;;;;;;;23.45;8.38;;;19.20;99.90;;;;;;4948201;28;20023;-71
2022/07/04 09:26:18;;;;;;;21.98;7.43;;;19.60;99.90;;;;;;4944065;28;20074;-73
2022/07/04 09:28:45;;;;;;;17.90;6.65;;;19.90;99.90;;;;;;4958093;28;20034;-71
2022/07/04 09:31:28;;;;;;;17.98;5.40;;;20.00;99.90;;;;;;4962866;28;20053;-70
2022/07/04 09:33:59;;;;;;;13.13;5.82;;;19.90;99.90;;;;;;4965587;28;20133;-71
2022/07/04 09:36:27;;;;;;;14.73;6.30;;;19.90;99.90;;;;;;4955503;28;20434;-71
2022/07/04 09:39:14;;;;;;;14.15;5.22;;;20.00;99.90;;;;;;4951749;28;20075;-74
2022/07/04 09:41:59;;;;;;;14.68;5.70;;;20.00;99.90;;;;;;4959415;28;20049;-76
2022/07/04 09:44:43;;;;;;;17.60;5.95;;;19.80;99.90;;;;;;4971958;28;20039;-73
2022/07/04 09:47:27;;;;;;;17.35;6.70;;;19.70;99.90;;;;;;4968598;28;20397;-70
2022/07/04 09:50:07;;;;;;;15.48;6.85;;;19.80;99.90;;;;;;4941861;28;20077;-70
2022/07/04 09:53:09;;;;;;;10.43;5.75;;;19.80;99.90;;;;;;4964306;28;20051;-71
2022/07/04 09:55:38;;;;;;;15.73;5.75;;;20.00;99.90;;;;;;4957557;28;20057;-77
2022/07/04 09:58:12;;;;;;;11.43;5.93;;;20.40;99.90;;;;;;4964492;28;20043;-73
2022/07/04 10:00:40;;;;;;;10.95;5.95;;;20.40;99.90;;;;;;4953695;28;20051;-74
2022/07/04 10:03:29;;;;;;;16.73;5.80;;;20.30;99.90;;;;;;4965868;28;20030;-74
2022/07/04 10:06:09;;;;;;;14.65;4.90;;;20.40;99.90;;;;;;4961476;28;20047;-69
2022/07/04 10:08:35;;;;;;;15.40;5.57;;;20.50;99.90;;;;;;4950329;28;20327;-72
2022/07/04 10:11:03;;;;;;;12.45;6.68;;;20.50;99.90;;;;;;4949968;28;20061;-71
2022/07/04 10:13:28;;;;;;;14.57;5.22;;;20.40;99.90;;;;;;4955390;28;20038;-72
2022/07/04 10:15:54;;;;;;;11.52;5.40;;;20.50;99.90;;;;;;4957224;28;20050;-73
2022/07/04 10:18:21;;;;;;;11.52;6.05;;;20.50;99.90;;;;;;4954192;28;20174;-75
2022/07/04 10:20:49;;;;;;;12.35;5.43;;;20.20;99.90;;;;;;4955809;28;20093;-71
2022/07/04 10:23:15;;;;;;;14.13;6.55;;;19.90;99.90;;;;;;4954756;28;20478;-75
2022/07/04 10:25:41;;;;;;;17.25;6.60;;;20.00;99.90;;;;;;4957322;28;20047;-72
2022/07/04 10:28:08;;;;;;;10.85;6.55;;;20.10;99.90;;;;;;4938374;28;20039;-73
2022/07/04 10:30:36;;;;;;;14.45;7.10;;;20.30;99.90;;;;;;4963348;28;20047;-71
2022/07/04 10:33:07;;;;;;;12.45;6.28;;;20.40;99.90;;;;;;4962434;28;20039;-72
2022/07/04 10:35:56;;;;;;;12.70;6.63;;;20.50;99.90;;;;;;4957419;28;20051;-72
2022/07/04 10:38:34;;;;;;;9.43;6.00;;;20.60;99.90;;;;;;4965318;28;20301;-76
2022/07/04 10:41:07;;;;;;;17.25;6.30;;;20.60;99.90;;;;;;4959962;28;20387;-71
2022/07/04 10:43:42;;;;;;;12.15;6.78;;;20.60;99.90;;;;;;4954273;28;20046;-75
2022/07/04 10:46:19;;;;;;;15.73;8.00;;;20.70;99.90;;;;;;4968220;28;20501;-73
2022/07/04 10:49:14;;;;;;;11.75;7.00;;;20.80;99.90;;;;;;4962597;28;20057;-71
2022/07/04 10:51:48;;;;;;;16.48;6.93;;;20.70;99.90;;;;;;4956131;28;20490;-71
2022/07/04 10:54:34;;;;;;;14.57;6.35;;;20.80;99.90;;;;;;4960192;28;20051;-72
2022/07/04 10:57:20;;;;;;;9.90;5.35;;;20.80;99.90;;;;;;4958897;28;20062;-74
2022/07/04 10:59:56;;;;;;;13.30;5.28;;;20.80;99.90;;;;;;4968329;28;20386;-75
2022/07/04 11:02:35;;;;;;;10.15;4.82;;;20.80;99.90;;;;;;4955397;28;20417;-69
2022/07/04 11:05:14;;;;;;;7.63;4.80;;;20.80;99.90;;;;;;4956915;28;20197;-71
2022/07/04 11:07:40;;;;;;;7.00;5.00;;;20.80;99.90;;;;;;4959183;28;20043;-76
2022/07/04 11:12:56;;;;;;;9.27;4.93;;;20.90;99.90;;;;;;4949999;28;20042;-73
2022/07/04 11:15:44;;;;;;;13.68;5.65;;;21.00;99.90;;;;;;4961226;28;20122;-69
2022/07/04 11:18:12;;;;;;;15.25;6.53;;;20.90;99.90;;;;;;4958016;28;20490;-68
2022/07/04 11:20:46;;;;;;;15.40;5.93;;;20.70;99.90;;;;;;4970829;28;20046;-70
2022/07/04 11:23:15;;;;;;;11.25;6.15;;;20.60;99.90;;;;;;4961699;28;20079;-69
2022/07/04 11:25:44;;;;;;;10.50;6.22;;;20.60;99.90;;;;;;4937545;28;20048;-71
2022/07/04 11:28:34;;;;;;;16.20;6.93;;;20.50;99.90;;;;;;4960135;28;20034;-69
2022/07/04 11:31:00;;;;;;;10.68;5.43;;;20.70;99.90;;;;;;4953303;28;20208;-74
2022/07/04 11:33:31;;;;;;;9.77;5.30;;;20.80;99.90;;;;;;4938850;28;20438;-77
2022/07/04 11:36:08;;;;;;;13.40;5.80;;;20.90;99.90;;;;;;4955519;28;20054;-75
2022/07/04 11:38:56;;;;;;;14.05;5.78;;;20.90;99.90;;;;;;4954736;28;20043;-70
2022/07/04 11:47:16;;;;;;;9.95;5.30;;;21.10;99.90;;;;;;4952941;28;20669;-71
2022/07/04 11:49:48;;;;;;;11.23;5.60;;;21.10;99.90;;;;;;4967911;28;20039;-71
2022/07/04 11:52:16;;;;;;;16.10;5.90;;;21.10;99.90;;;;;;4954578;28;20039;-73
2022/07/04 11:54:44;;;;;;;11.23;4.90;;;21.10;99.90;;;;;;4954627;28;20129;-76
2022/07/04 11:57:10;;;;;;;10.88;5.10;;;21.00;99.90;;;;;;4952197;28;20054;-71
2022/07/04 11:59:36;;;;;;;11.27;5.50;;;21.00;99.90;;;;;;4964141;28;20034;-74
2022/07/04 12:02:14;;;;;;;9.73;5.10;;;21.00;99.90;;;;;;4943366;28;20049;-72
2022/07/04 12:04:41;;;;;;;12.35;5.40;;;21.00;99.90;;;;;;4950936;28;20412;-75
2022/07/04 12:07:15;;;;;;;11.63;5.45;;;21.10;99.90;;;;;;4955077;28;20146;-69
2022/07/04 12:09:42;;;;;;;8.57;4.55;;;21.20;99.90;;;;;;4933244;29;20090;-72
2022/07/04 12:12:08;;;;;;;10.07;4.63;;;21.30;99.90;;;;;;4946969;28;20493;-74
2022/07/04 12:14:34;;;;;;;7.50;4.18;;;21.30;99.90;;;;;;4958253;28;20043;-74
2022/07/04 12:17:17;;;;;;;7.65;3.80;;;21.20;99.90;;;;;;4954882;28;20046;-73
2022/07/04 12:19:58;;;;;;;12.55;4.65;;;21.00;99.90;;;;;;4955818;28;20042;-73
2022/07/04 12:22:29;;;;;;;9.25;4.25;;;21.00;99.90;;;;;;4955465;28;20540;-73
2022/07/04 12:24:56;;;;;;;15.80;4.10;;;21.00;99.90;;;;;;4957175;28;20184;-76
2022/07/04 12:27:24;;;;;;;10.13;3.75;;;21.00;99.90;;;;;;4957032;28;20122;-71
2022/07/04 12:29:52;;;;;;;8.68;4.00;;;20.90;99.90;;;;;;4950142;28;20087;-72
2022/07/04 12:32:18;;;;;;;9.63;3.88;;;20.90;99.90;;;;;;4954906;28;20034;-71
2022/07/04 12:34:44;;;;;;;8.30;3.58;;;20.90;99.90;;;;;;4953025;28;20283;-70
2022/07/04 12:37:13;;;;;;;9.73;3.70;;;20.90;99.90;;;;;;4943600;28;20046;-70
2022/07/04 12:39:41;;;;;;;10.27;3.67;;;20.70;99.90;;;;;;4954519;28;20062;-73
2022/07/04 12:42:12;;;;;;;10.00;3.67;;;20.70;99.90;;;;;;4962026;28;20038;-71
2022/07/04 12:44:39;;;;;;;5.60;3.22;;;20.80;99.90;;;;;;4978795;28;20490;-72
2022/07/04 12:47:07;;;;;;;9.23;3.60;;;20.90;99.90;;;;;;4963992;28;20046;-72
2022/07/04 12:49:33;;;;;;;12.88;3.72;;;20.90;99.90;;;;;;4963651;28;20405;-69
2022/07/04 12:52:12;;;;;;;7.43;3.47;;;20.80;99.90;;;;;;4948023;28;20465;-69
2022/07/04 12:54:40;;;;;;;6.50;3.10;;;20.90;99.90;;;;;;4965904;28;20046;-70
2022/07/04 12:57:15;;;;;;;7.00;3.05;;;20.90;99.90;;;;;;4959523;28;20038;-71
2022/07/04 12:59:43;;;;;;;6.57;3.20;;;20.90;99.90;;;;;;4960535;28;20093;-71
2022/07/04 13:02:11;;;;;;;7.13;3.22;;;20.80;99.90;;;;;;4961242;28;20046;-73
2022/07/04 13:04:37;;;;;;;6.63;3.20;;;20.80;99.90;;;;;;4964214;28;20047;-68
2022/07/04 13:07:14;;;;;;;6.53;2.90;;;20.80;99.90;;;;;;4954503;28;20042;-72
2022/07/04 13:09:41;;;;;;;5.10;3.05;;;20.90;99.90;;;;;;4966596;28;20117;-69
2022/07/04 13:12:25;;;;;;;6.78;3.03;;;21.00;99.90;;;;;;4961939;28;20506;-71
2022/07/04 13:14:53;;;;;;;6.45;3.20;;;21.00;99.90;;;;;;4963236;28;20474;-72
2022/07/04 13:17:19;;;;;;;7.97;3.08;;;21.00;99.90;;;;;;4961381;28;20130;-72
2022/07/04 13:19:45;;;;;;;5.90;2.92;;;20.90;99.90;;;;;;4959239;28;20034;-75
2022/07/04 13:22:10;;;;;;;7.30;3.00;;;21.00;99.90;;;;;;4953720;28;20557;-72
2022/07/04 13:24:36;;;;;;;5.10;3.15;;;21.00;99.90;;;;;;4956138;28;20045;-70
2022/07/04 13:27:02;;;;;;;8.90;3.15;;;21.00;99.90;;;;;;4960948;28;20406;-75
2022/07/04 13:29:27;;;;;;;6.28;2.97;;;21.00;99.90;;;;;;4955204;28;20030;-70
2022/07/04 13:31:53;;;;;;;7.13;3.13;;;21.00;99.90;;;;;;4956196;28;20412;-73
2022/07/04 13:34:19;;;;;;;9.25;2.95;;;21.00;99.90;;;;;;4957939;28;20405;-72
2022/07/04 13:36:45;;;;;;;6.10;2.85;;;21.00;99.90;;;;;;4957376;28;20050;-72
2022/07/04 13:39:11;;;;;;;8.30;3.00;;;20.90;99.90;;;;;;4947593;28;20043;-74
2022/07/04 13:41:37;;;;;;;7.85;2.50;;;20.90;99.90;;;;;;4957151;28;20046;-73
2022/07/04 13:44:04;;;;;;;7.15;2.92;;;21.00;99.90;;;;;;4958392;28;20038;-72
2022/07/04 13:46:34;;;;;;;10.13;2.75;;;21.00;99.90;;;;;;4953151;28;20050;-71